createdAt,value
2023-02-18T00:02:34.657Z,101074.63
2023-02-18T00:07:38.036Z,101087.75
2023-02-18T00:12:42.036Z,101083.28
2023-02-18T00:17:43.974Z,101095.50
2023-02-18T00:22:45.919Z,101081.44
2023-02-18T00:27:49.542Z,101105.16
2023-02-18T00:32:52.307Z,101106.72
2023-02-18T00:37:54.742Z,101101.47
2023-02-18T00:42:58.030Z,101112.88
2023-02-18T00:47:59.822Z,101099.50
2023-02-18T00:53:02.039Z,101118.81
2023-02-18T00:58:05.813Z,101122.38
2023-02-18T01:03:08.737Z,101114.38
2023-02-18T01:08:11.525Z,101125.81
2023-02-18T01:13:16.469Z,101115.16
2023-02-18T01:18:18.794Z,101129.31
2023-02-18T01:23:22.330Z,101119.63
2023-02-18T01:28:26.510Z,101124.00
2023-02-18T01:33:28.617Z,101103.81
2023-02-18T01:38:31.000Z,101102.06
2023-02-18T01:43:34.633Z,101099.47
2023-02-18T01:48:40.014Z,101105.66
2023-02-18T01:53:50.010Z,101125.72
2023-02-18T01:58:57.112Z,101114.34
2023-02-18T02:03:59.414Z,101123.94
2023-02-18T02:09:06.941Z,101122.97
2023-02-18T02:14:22.152Z,101133.63
2023-02-18T02:19:59.447Z,101137.97
2023-02-18T02:25:19.968Z,101129.97
2023-02-18T02:30:54.569Z,101127.34
2023-02-18T02:36:03.719Z,101113.38
2023-02-18T02:41:18.605Z,101114.25
2023-02-18T02:46:27.442Z,101110.66
2023-02-18T02:51:35.954Z,101128.25
2023-02-18T02:56:38.032Z,101113.31
2023-02-18T03:01:56.671Z,101121.06
2023-02-18T03:07:14.804Z,101106.91
2023-02-18T03:12:23.354Z,101111.34
2023-02-18T03:17:29.739Z,101113.88
2023-02-18T03:22:38.637Z,101119.00
2023-02-18T03:27:46.422Z,101119.78
2023-02-18T03:32:51.125Z,101117.09
2023-02-18T03:38:00.980Z,101109.34
2023-02-18T03:43:03.075Z,101111.84
2023-02-18T03:48:06.391Z,101104.84
2023-02-18T03:53:10.340Z,101128.50
2023-02-18T03:58:12.812Z,101119.69
2023-02-18T04:03:15.183Z,101124.19
2023-02-18T04:08:18.885Z,101126.69
2023-02-18T04:13:21.461Z,101136.44
2023-02-18T04:18:24.124Z,101129.38
2023-02-18T04:23:27.903Z,101132.22
2023-02-18T04:28:30.103Z,101124.34
2023-02-18T04:33:32.293Z,101136.91
2023-02-18T04:38:36.160Z,101120.28
2023-02-18T04:43:38.293Z,101114.25
2023-02-18T04:48:40.720Z,101128.50
2023-02-18T04:53:43.843Z,101120.66
2023-02-18T04:58:46.024Z,101111.09
2023-02-18T05:03:48.459Z,101114.66
2023-02-18T05:08:51.624Z,101123.44
2023-02-18T05:13:53.597Z,101126.09
2023-02-18T05:18:55.626Z,101119.06
2023-02-18T05:23:59.043Z,101119.91
2023-02-18T05:29:01.272Z,101126.09
2023-02-18T05:34:02.973Z,101123.47
2023-02-18T05:39:06.460Z,101116.47
2023-02-18T05:44:09.009Z,101110.31
2023-02-18T05:49:11.124Z,101105.03
2023-02-18T05:54:14.597Z,101116.38
2023-02-18T05:59:16.895Z,101104.94
2023-02-18T06:04:19.361Z,101111.03
2023-02-18T06:09:22.899Z,101104.03
2023-02-18T06:14:25.303Z,101104.03
2023-02-18T06:19:27.039Z,101105.88
2023-02-18T06:24:30.933Z,101105.97
2023-02-18T06:29:33.437Z,101102.44
2023-02-18T06:34:35.244Z,101118.31
2023-02-18T06:39:39.212Z,101113.00
2023-02-18T06:44:41.194Z,101115.56
2023-02-18T06:49:43.380Z,101109.38
2023-02-18T06:54:47.274Z,101096.06
2023-02-18T06:59:49.402Z,101097.81
2023-02-18T07:04:51.442Z,101103.94
2023-02-18T07:09:54.865Z,101108.34
2023-02-18T07:14:56.832Z,101093.47
2023-02-18T07:19:58.914Z,101089.91
2023-02-18T07:25:03.096Z,101081.16
2023-02-18T07:30:06.568Z,101074.88
2023-02-18T07:35:10.495Z,101077.50
2023-02-18T07:40:16.085Z,101066.19
2023-02-18T07:45:17.904Z,101036.38
2023-02-18T07:50:19.726Z,101019.72
2023-02-18T07:55:22.895Z,101033.69
2023-02-18T08:00:27.065Z,101036.38
2023-02-18T08:05:29.196Z,101023.16
2023-02-18T08:10:32.387Z,101025.03
2023-02-18T08:15:34.145Z,101004.81
2023-02-18T08:20:36.773Z,101005.75
2023-02-18T08:25:40.703Z,100982.81
2023-02-18T08:30:45.077Z,100980.16
2023-02-18T08:35:48.033Z,100954.75
2023-02-18T08:41:00.979Z,100960.03
2023-02-18T08:46:03.985Z,100948.59
2023-02-18T08:51:17.784Z,100944.16
2023-02-18T08:56:21.627Z,100931.81
2023-02-18T09:01:24.020Z,100931.84
2023-02-18T09:06:26.509Z,100919.50
2023-02-18T09:11:30.817Z,100904.59
2023-02-18T09:16:33.369Z,100895.81
2023-02-18T09:21:35.317Z,100898.41
2023-02-18T09:26:38.980Z,100887.88
2023-02-18T09:31:41.151Z,100883.53
2023-02-18T09:36:42.923Z,100858.03
2023-02-18T09:41:50.392Z,100857.09
2023-02-18T09:46:55.596Z,100849.28
2023-02-18T09:52:07.433Z,100831.75
2023-02-18T09:57:23.742Z,100813.31
2023-02-18T10:02:26.142Z,100811.50
2023-02-18T10:07:31.779Z,100794.81
2023-02-18T10:12:35.638Z,100799.22
2023-02-18T10:17:38.889Z,100787.72
2023-02-18T10:22:41.446Z,100761.41
2023-02-18T10:27:45.848Z,100736.78
2023-02-18T10:32:48.377Z,100715.69
2023-02-18T10:38:01.377Z,100708.72
2023-02-18T10:43:16.672Z,100695.50
2023-02-18T10:48:55.475Z,100671.78
2023-02-18T10:53:57.653Z,100655.94
2023-02-18T10:59:09.659Z,100648.03
2023-02-18T11:04:15.138Z,100626.06
2023-02-18T11:09:30.616Z,100596.19
2023-02-18T11:14:43.229Z,100597.94
2023-02-18T11:19:53.132Z,100573.34
2023-02-18T11:24:56.412Z,100575.09
2023-02-18T11:30:05.597Z,100548.72
2023-02-18T11:35:17.357Z,100539.00
2023-02-18T11:40:25.054Z,100533.72
2023-02-18T11:45:30.603Z,100504.59
2023-02-18T11:50:34.434Z,100490.44
2023-02-18T11:55:36.505Z,100481.59
2023-02-18T12:00:42.889Z,100463.94
2023-02-18T12:05:45.893Z,100455.03
2023-02-18T12:10:50.488Z,100446.06
2023-02-18T12:16:01.890Z,100445.84
2023-02-18T12:21:16.637Z,100422.53
2023-02-18T12:26:26.460Z,100423.06
2023-02-18T12:31:45.562Z,100428.94
2023-02-18T12:36:58.857Z,100408.41
2023-02-18T12:42:14.410Z,100402.88
2023-02-18T12:47:37.943Z,100403.50
2023-02-18T12:52:50.353Z,100391.78
2023-02-18T12:58:06.210Z,100387.16
2023-02-18T13:03:34.766Z,100385.25
2023-02-18T13:08:50.048Z,100371.09
2023-02-18T13:14:00.978Z,100362.09
2023-02-18T13:19:15.358Z,100343.28
2023-02-18T13:24:26.604Z,100353.88
2023-02-18T13:29:35.599Z,100352.06
2023-02-18T13:34:47.385Z,100357.38
2023-02-18T13:39:53.320Z,100365.63
2023-02-18T13:45:28.363Z,100358.72
2023-02-18T13:50:41.040Z,100345.47
2023-02-18T13:55:53.258Z,100354.19
2023-02-18T14:01:02.266Z,100357.69
2023-02-18T14:06:20.646Z,100356.84
2023-02-18T14:11:46.963Z,100354.25
2023-02-18T14:17:13.441Z,100371.38
2023-02-18T14:22:28.905Z,100378.63
2023-02-18T14:27:30.957Z,100377.69
2023-02-18T14:32:33.600Z,100387.19
2023-02-18T14:38:01.991Z,100384.50
2023-02-18T14:43:13.706Z,100381.00
2023-02-18T14:48:33.635Z,100380.09
2023-02-18T14:53:42.257Z,100382.75
2023-02-18T14:58:47.526Z,100374.72
2023-02-18T15:03:51.758Z,100376.03
2023-02-18T15:08:54.932Z,100398.31
2023-02-18T15:13:57.066Z,100402.00
2023-02-18T15:19:03.079Z,100383.47
2023-02-18T15:24:13.762Z,100404.88
2023-02-18T15:29:19.494Z,100424.47
2023-02-18T15:34:37.071Z,100437.72
2023-02-18T15:39:41.815Z,100437.72
2023-02-18T15:44:47.771Z,100447.31
2023-02-18T15:49:53.453Z,100472.09
2023-02-18T15:55:00.604Z,100455.25
2023-02-18T16:00:07.170Z,100469.50
2023-02-18T16:05:14.014Z,100486.19
2023-02-18T16:10:21.580Z,100489.75
2023-02-18T16:15:27.083Z,100498.53
2023-02-18T16:20:32.479Z,100513.47
2023-02-18T16:25:45.355Z,100521.56
2023-02-18T16:30:47.430Z,100532.19
2023-02-18T16:35:51.004Z,100532.34
2023-02-18T16:40:54.647Z,100528.19
2023-02-18T16:45:58.903Z,100553.88
2023-02-18T16:51:04.750Z,100573.28
2023-02-18T16:56:14.527Z,100563.41
2023-02-18T17:01:23.499Z,100588.16
2023-02-18T17:06:25.832Z,100593.56
2023-02-18T17:11:32.450Z,100601.59
2023-02-18T17:16:34.227Z,100611.13
2023-02-18T17:21:36.240Z,100625.28
2023-02-18T17:26:40.091Z,100640.34
2023-02-18T17:31:44.834Z,100677.41
2023-02-18T17:36:47.199Z,100675.66
2023-02-18T17:41:52.049Z,100696.94
2023-02-18T17:46:53.769Z,100708.56
2023-02-18T17:51:58.060Z,100723.53
2023-02-18T17:57:01.850Z,100754.50
2023-02-18T18:02:04.067Z,100770.44
2023-02-18T18:07:05.831Z,100773.13
2023-02-18T18:12:14.653Z,100775.75
2023-02-18T18:17:16.513Z,100791.59
2023-02-18T18:22:18.489Z,100797.78
2023-02-18T18:27:21.645Z,100812.72
2023-02-18T18:32:23.424Z,100808.34
2023-02-18T18:37:25.116Z,100831.22
2023-02-18T18:42:28.204Z,100825.06
2023-02-18T18:47:30.166Z,100841.81
2023-02-18T18:52:31.982Z,100834.72
2023-02-18T18:57:35.593Z,100853.19
2023-02-18T19:02:37.406Z,100867.25
2023-02-18T19:07:39.190Z,100850.53
2023-02-18T19:12:42.489Z,100869.84
2023-02-18T19:17:49.900Z,100870.69
2023-02-18T19:22:52.494Z,100868.94
2023-02-18T19:27:56.289Z,100874.16
2023-02-18T19:33:00.833Z,100890.03
2023-02-18T19:38:03.214Z,100896.06
2023-02-18T19:43:07.331Z,100908.31
2023-02-18T19:48:10.425Z,100917.03
2023-02-18T19:53:12.520Z,100901.22
2023-02-18T19:58:16.188Z,100908.22
2023-02-18T20:03:18.108Z,100916.13
2023-02-18T20:08:20.058Z,100912.56
2023-02-18T20:13:24.293Z,100916.09
2023-02-18T20:18:26.358Z,100913.41
2023-02-18T20:23:28.765Z,100909.13
2023-02-18T20:28:31.989Z,100917.94
2023-02-18T20:33:34.167Z,100921.50
2023-02-18T20:38:37.031Z,100916.22
2023-02-18T20:43:41.035Z,100920.63
2023-02-18T20:48:43.934Z,100934.66
2023-02-18T20:53:47.291Z,100936.44
2023-02-18T20:58:50.871Z,100941.63
2023-02-18T21:03:53.088Z,100946.03
2023-02-18T21:08:55.027Z,100953.00
2023-02-18T21:13:59.027Z,100943.31
2023-02-18T21:19:00.833Z,100956.44
2023-02-18T21:24:03.654Z,100960.81
2023-02-18T21:29:08.668Z,100967.06
2023-02-18T21:34:12.899Z,100974.06
2023-02-18T21:39:14.876Z,100972.25
2023-02-18T21:44:18.394Z,100963.38
2023-02-18T21:49:20.478Z,100959.75
2023-02-18T21:54:25.436Z,100961.53
2023-02-18T21:59:30.490Z,100967.66
2023-02-18T22:04:35.159Z,100961.41
2023-02-18T22:09:38.038Z,100969.31
2023-02-18T22:14:42.621Z,100976.31
2023-02-18T22:19:44.840Z,100982.44
2023-02-18T22:24:47.069Z,100992.06
2023-02-18T22:29:50.529Z,101006.91
2023-02-18T22:34:53.934Z,101001.53
2023-02-18T22:39:56.404Z,100990.22
2023-02-18T22:45:00.006Z,100984.84
2023-02-18T22:50:02.195Z,100978.69
2023-02-18T22:55:04.296Z,100985.69
2023-02-18T23:00:09.126Z,100987.34
2023-02-18T23:05:11.269Z,100985.56
2023-02-18T23:10:12.996Z,100978.63
2023-02-18T23:15:16.565Z,100979.38
2023-02-18T23:20:19.640Z,100981.97
2023-02-18T23:25:22.014Z,100977.56
2023-02-18T23:30:25.294Z,100972.34
2023-02-18T23:35:27.293Z,100976.78
2023-02-18T23:40:29.416Z,100983.66
2023-02-18T23:45:32.868Z,100979.41
2023-02-18T23:50:34.916Z,100981.94
2023-02-18T23:55:37.059Z,100973.13
